Virtual LH

Virtual LH. There's no better way to fly
Since 2013.



AIRPORT MAP

METAR AND TAF INFORMATION

METAR FOR EDDC
ADDS - METARS form results

(0127 UTC 23 July 2019)
Data provider http://aviationweather.gov/metar/data/
 
METAR text: EDDC 230120Z 24003KT CAVOK 20/13 Q1022
Conditions at: EDDC (DRESDEN/KLOTZSCH, DE) observed 0120 UTC 23 July 2019
Temperature: 20.0°C (68°F)
Dewpoint: 13.0°C (55°F) [RH = 64%]
Pressure (altimeter): 30.18 inches Hg (1022.0 mb)
Winds: from the WSW (240 degrees) at 3 MPH (3 knots; 1.5 m/s)
Visibility: 6 or more miles (10+ km)
Ceiling: ceiling and visibility are OK
Clouds: unknown
Weather: no significant weather observed at this time

METAR text: EDDC 230050Z 17002KT CAVOK 21/13 Q1023
Conditions at: EDDC (DRESDEN/KLOTZSCH, DE) observed 0050 UTC 23 July 2019
Temperature: 21.0°C (70°F)
Dewpoint: 13.0°C (55°F) [RH = 60%]
Pressure (altimeter): 30.21 inches Hg (1023.0 mb)
Winds: from the S (170 degrees) at 2 MPH (2 knots; 1.0 m/s)
Visibility: 6 or more miles (10+ km)
Ceiling: ceiling and visibility are OK
Clouds: unknown
Weather: no significant weather observed at this time

Forecast for: EDDC (DRESDEN/KLOTZSCH, DE)
Text: TAF EDDC 222300Z 2300/2324 25004KT CAVOK
Forecast period: 0000 to 0600 UTC 23 July 2019
Forecast type: FROM: standard forecast or significant change
Winds: from the WSW (250 degrees) at 5 MPH (4 knots; 2.1 m/s)
Visibility: 6 or more miles 10+ km)
Ceiling: unknown
Clouds: missing
Weather: NSW  (no significant weather)
Text: BECMG 2306/2308 31008KT
Forecast period: 0600 to 1600 UTC 23 July 2019
Forecast type: BECOMING: Conditions expected to become as follows by 0800 UTC 23 July 2019
Winds: from the NW (310 degrees) at 9 MPH (8 knots; 4.1 m/s)
Visibility: 6 or more miles 10+ km)
Ceiling: unknown
Clouds: missing
Weather: NSW  (no significant weather)
Text: BECMG 2316/2318 01004KT
Forecast period: 1600 UTC 23 July 2019 to 0000 UTC 24 July 2019
Forecast type: BECOMING: Conditions expected to become as follows by 1800 UTC 23 July 2019
Winds: from the N (10 degrees) at 5 MPH (4 knots; 2.1 m/s)
Visibility: 6 or more miles 10+ km)
Ceiling: unknown
Clouds: missing
Weather: NSW  (no significant weather)

RUNWAY INFORMATION

Runway 04 Runway length 8228 ft Runway width 167 ft
Runway elevation 755 ft Runway displaced threshold 0 ft Runway heading 41
Runway 22 Runway length 8228 ft Runway width 167 ft
Runway elevation 703 ft Runway displaced threshold 0 ft Runway heading 221

AIRPORT FREQUENCIES

Type AFIS Name MUNCHEN IN Frequency 125.8 MHZ
Type APP Name MUNCHEN RA Frequency 125.625 MHZ
Type ATIS Name ATIS Frequency 118.875 MHZ
Type GND Name GND Frequency 121.9 MHZ
Type RMP Name APRON Frequency 121.75 MHZ
Type TWR Name TWR Frequency 119.7 MHZ

AIRPORT NEAR NAVIGATION AIDS

Type DME Name Dresden Frequency 115400 KHZ
Type VOR-DME Name Dresden Frequency 114350 KHZ